createdAt,value
2022-08-18T00:00:20.397Z,4.60
2022-08-18T00:03:01.122Z,5.57
2022-08-18T00:05:29.902Z,5.87
2022-08-18T00:07:57.761Z,5.63
2022-08-18T00:10:24.422Z,5.93
2022-08-18T00:12:51.086Z,8.60
2022-08-18T00:15:23.777Z,7.67
2022-08-18T00:17:50.180Z,5.83
2022-08-18T00:20:21.063Z,6.17
2022-08-18T00:22:47.906Z,7.17
2022-08-18T00:25:15.487Z,8.70
2022-08-18T00:27:41.919Z,8.20
2022-08-18T00:30:13.862Z,8.50
2022-08-18T00:32:42.187Z,7.43
2022-08-18T00:35:14.370Z,9.77
2022-08-18T00:37:41.147Z,7.87
2022-08-18T00:40:08.688Z,8.47
2022-08-18T00:42:40.353Z,8.50
2022-08-18T00:45:07.110Z,7.80
2022-08-18T00:47:42.478Z,7.60
2022-08-18T00:50:15.175Z,8.63
2022-08-18T00:52:43.528Z,10.87
2022-08-18T00:55:11.119Z,9.27
2022-08-18T00:57:37.575Z,9.07
2022-08-18T01:00:12.071Z,8.10
2022-08-18T01:02:41.963Z,10.93
2022-08-18T01:05:19.887Z,11.37
2022-08-18T01:07:47.549Z,9.83
2022-08-18T01:10:17.907Z,10.10
2022-08-18T01:12:46.897Z,8.97
2022-08-18T01:15:28.003Z,9.67
2022-08-18T01:18:15.731Z,10.33
2022-08-18T01:21:08.666Z,9.83
2022-08-18T01:23:35.843Z,12.20
2022-08-18T01:26:04.168Z,10.53
2022-08-18T01:28:32.073Z,35.13
2022-08-18T01:30:59.024Z,12.70
2022-08-18T01:33:30.145Z,12.80
2022-08-18T01:35:57.488Z,10.67
2022-08-18T01:38:23.963Z,11.27
2022-08-18T01:41:23.543Z,12.73
2022-08-18T01:43:38.183Z,11.27
2022-08-18T01:46:04.909Z,11.90
2022-08-18T01:48:34.158Z,10.53
2022-08-18T01:51:01.536Z,11.73
2022-08-18T01:53:29.051Z,13.97
2022-08-18T01:55:55.875Z,13.17
2022-08-18T01:58:31.417Z,13.57
2022-08-18T02:01:01.678Z,10.30
2022-08-18T02:03:34.534Z,13.87
2022-08-18T02:06:02.253Z,13.33
2022-08-18T02:08:29.254Z,15.43
2022-08-18T02:10:58.324Z,14.70
2022-08-18T02:13:25.741Z,13.60
2022-08-18T02:15:52.311Z,13.60
2022-08-18T02:18:41.524Z,15.53
2022-08-18T02:21:10.466Z,13.23
2022-08-18T02:23:37.546Z,12.03
2022-08-18T02:26:05.000Z,13.43
2022-08-18T02:28:31.442Z,13.50
2022-08-18T02:30:57.813Z,14.33
2022-08-18T02:33:24.176Z,18.10
2022-08-18T02:35:54.444Z,16.27
2022-08-18T02:38:20.863Z,13.33
2022-08-18T02:40:47.641Z,13.13
2022-08-18T02:43:14.019Z,14.47
2022-08-18T02:45:40.435Z,13.63
2022-08-18T02:48:07.257Z,13.50
2022-08-18T02:50:33.669Z,14.63
2022-08-18T02:53:01.922Z,15.57
2022-08-18T02:55:29.382Z,13.67
2022-08-18T02:57:56.023Z,12.73
2022-08-18T03:00:22.524Z,13.13
2022-08-18T03:02:51.596Z,16.30
2022-08-18T03:05:18.598Z,12.20
2022-08-18T03:07:45.496Z,14.87
2022-08-18T03:10:32.867Z,15.80
2022-08-18T03:13:00.423Z,12.87
2022-08-18T03:15:26.861Z,14.80
2022-08-18T03:17:54.616Z,16.83
2022-08-18T03:20:30.166Z,16.77
2022-08-18T03:22:57.718Z,16.60
2022-08-18T03:25:24.822Z,14.87
2022-08-18T03:27:51.436Z,44.27
2022-08-18T03:30:17.967Z,47.10
2022-08-18T03:32:45.644Z,25.53
2022-08-18T03:35:14.620Z,17.13
2022-08-18T03:37:41.082Z,13.93
2022-08-18T03:40:07.928Z,15.53
2022-08-18T03:42:34.399Z,17.93
2022-08-18T03:45:00.820Z,15.60
2022-08-18T03:47:40.252Z,20.70
2022-08-18T03:50:27.446Z,41.83
2022-08-18T03:52:53.880Z,37.60
2022-08-18T03:55:20.279Z,23.87
2022-08-18T03:57:46.784Z,18.37
2022-08-18T04:00:13.756Z,14.57
2022-08-18T04:02:40.162Z,14.47
2022-08-18T04:05:06.912Z,15.23
2022-08-18T04:07:34.551Z,14.43
2022-08-18T04:10:01.197Z,15.43
2022-08-18T04:12:27.691Z,14.73
2022-08-18T04:14:54.171Z,16.60
2022-08-18T04:17:25.008Z,12.83
2022-08-18T04:19:52.685Z,12.70
2022-08-18T04:22:19.199Z,13.90
2022-08-18T04:24:46.446Z,12.70
2022-08-18T04:27:12.891Z,14.90
2022-08-18T04:29:39.436Z,16.60
2022-08-18T04:32:06.043Z,14.50
2022-08-18T04:34:35.941Z,13.93
2022-08-18T04:37:03.106Z,16.87
2022-08-18T04:39:30.222Z,18.27
2022-08-18T04:41:56.861Z,14.23
2022-08-18T04:44:23.271Z,13.50
2022-08-18T04:46:53.780Z,12.03
2022-08-18T04:49:21.771Z,14.23
2022-08-18T04:52:34.025Z,13.17
2022-08-18T04:54:54.889Z,13.67
2022-08-18T04:57:23.091Z,11.53
2022-08-18T04:59:50.326Z,15.27
2022-08-18T05:02:18.529Z,15.30
2022-08-18T05:04:47.934Z,14.40
2022-08-18T05:07:19.028Z,11.67
2022-08-18T05:09:46.341Z,13.20
2022-08-18T05:12:14.223Z,10.53
2022-08-18T05:14:41.473Z,13.50
2022-08-18T05:17:08.039Z,16.37
2022-08-18T05:19:35.735Z,12.07
2022-08-18T05:22:08.587Z,12.97
2022-08-18T05:24:37.758Z,18.57
2022-08-18T05:27:04.745Z,17.07
2022-08-18T05:29:41.454Z,16.70
2022-08-18T05:32:46.332Z,11.47
2022-08-18T05:35:02.797Z,15.13
2022-08-18T05:37:36.654Z,14.83
2022-08-18T05:40:11.091Z,12.67
2022-08-18T05:42:38.877Z,15.53
2022-08-18T05:45:10.582Z,12.03
2022-08-18T05:47:36.962Z,11.93
2022-08-18T05:50:08.054Z,19.13
2022-08-18T05:52:34.467Z,10.90
2022-08-18T05:55:21.547Z,20.53
2022-08-18T05:58:04.462Z,16.83
2022-08-18T06:00:31.596Z,17.37
2022-08-18T06:03:07.185Z,13.50
2022-08-18T06:05:36.195Z,16.97
2022-08-18T06:08:05.205Z,19.57
2022-08-18T06:10:31.879Z,19.50
2022-08-18T06:12:59.431Z,19.87
2022-08-18T06:15:25.864Z,19.73
2022-08-18T06:17:52.502Z,14.13
2022-08-18T06:20:19.023Z,13.60
2022-08-18T06:22:58.450Z,18.70
2022-08-18T06:25:34.302Z,16.00
2022-08-18T06:28:00.703Z,20.53
2022-08-18T06:30:36.346Z,17.50
2022-08-18T06:33:10.240Z,17.23
2022-08-18T06:35:49.475Z,20.10
2022-08-18T06:38:40.532Z,19.93
2022-08-18T06:41:42.578Z,22.70
2022-08-18T06:44:10.391Z,22.83
2022-08-18T06:46:36.758Z,16.60
2022-08-18T06:49:09.005Z,17.23
2022-08-18T06:51:40.574Z,24.47
2022-08-18T06:54:24.447Z,23.40
2022-08-18T06:56:52.107Z,21.30
2022-08-18T06:59:31.935Z,21.77
2022-08-18T07:02:04.873Z,22.00
2022-08-18T07:04:39.365Z,18.07
2022-08-18T07:07:15.242Z,23.10
2022-08-18T07:09:41.666Z,21.13
2022-08-18T07:12:09.752Z,29.90
2022-08-18T07:14:44.998Z,30.70
2022-08-18T07:17:22.220Z,39.87
2022-08-18T07:20:10.383Z,39.23
2022-08-18T07:22:55.772Z,39.23
2022-08-18T07:25:24.467Z,45.37
2022-08-18T07:27:51.649Z,39.40
2022-08-18T07:30:19.372Z,44.10
2022-08-18T07:32:48.140Z,44.30
2022-08-18T07:35:17.560Z,52.43
2022-08-18T07:37:43.925Z,50.37
2022-08-18T07:40:29.295Z,52.27
2022-08-18T07:43:01.855Z,48.33
2022-08-18T07:45:34.017Z,45.43
2022-08-18T07:48:38.744Z,47.60
2022-08-18T07:51:08.707Z,44.63
2022-08-18T07:53:54.622Z,42.93
2022-08-18T07:56:26.330Z,42.23
2022-08-18T07:59:03.668Z,40.80
2022-08-18T08:01:40.947Z,37.20
2022-08-18T08:04:25.454Z,40.83
2022-08-18T08:07:25.859Z,40.30
2022-08-18T08:10:01.666Z,45.30
2022-08-18T08:12:33.445Z,40.23
2022-08-18T08:15:06.477Z,44.60
2022-08-18T08:17:54.107Z,41.20
2022-08-18T08:20:47.151Z,44.93
2022-08-18T08:23:19.696Z,57.40
2022-08-18T08:25:55.393Z,61.17
2022-08-18T08:28:33.472Z,63.33
2022-08-18T08:31:13.831Z,65.97
2022-08-18T08:33:56.856Z,67.07
2022-08-18T08:36:25.625Z,66.90
2022-08-18T08:38:57.316Z,66.90
2022-08-18T08:42:29.710Z,69.20
2022-08-18T08:45:00.208Z,56.20
2022-08-18T08:47:40.987Z,48.60
2022-08-18T08:50:09.327Z,44.90
2022-08-18T08:53:05.347Z,40.10
2022-08-18T08:55:34.146Z,41.77
2022-08-18T08:58:00.502Z,36.87
2022-08-18T09:00:27.112Z,34.30
2022-08-18T09:03:13.806Z,33.23
2022-08-18T09:05:52.210Z,34.90
2022-08-18T09:08:25.629Z,37.30
2022-08-18T09:11:05.730Z,30.95
2022-08-18T09:13:35.005Z,34.73
2022-08-18T09:16:15.814Z,36.33
2022-08-18T09:18:45.030Z,28.45
2022-08-18T09:21:25.011Z,38.33
2022-08-18T09:23:53.190Z,36.85
2022-08-18T09:26:22.617Z,33.72
2022-08-18T09:28:56.608Z,37.67
2022-08-18T09:31:23.822Z,38.30
2022-08-18T09:34:11.295Z,36.25
2022-08-18T09:36:56.392Z,41.38
2022-08-18T09:39:53.787Z,33.25
2022-08-18T09:42:50.406Z,34.72
2022-08-18T09:45:34.308Z,34.42
2022-08-18T09:48:12.997Z,37.85
2022-08-18T09:50:55.288Z,39.13
2022-08-18T09:53:37.251Z,37.50
2022-08-18T09:56:05.581Z,30.60
2022-08-18T09:58:50.244Z,30.42
2022-08-18T10:01:38.533Z,31.05
2022-08-18T10:04:15.483Z,34.40
2022-08-18T10:09:44.105Z,34.58
2022-08-18T10:12:20.556Z,29.23
2022-08-18T10:14:56.144Z,28.83
2022-08-18T10:17:24.763Z,30.60
2022-08-18T10:20:01.098Z,35.00
2022-08-18T10:22:38.991Z,31.55
2022-08-18T10:25:22.297Z,30.02
2022-08-18T10:27:51.812Z,30.85
2022-08-18T10:30:34.582Z,29.35
2022-08-18T10:33:17.231Z,27.95
2022-08-18T10:36:03.050Z,28.83
2022-08-18T10:38:49.014Z,32.05
2022-08-18T10:41:36.157Z,29.77
2022-08-18T10:44:27.650Z,26.27
2022-08-18T10:46:55.291Z,32.35
2022-08-18T10:49:26.392Z,27.05
2022-08-18T10:52:00.200Z,24.27
2022-08-18T10:54:50.765Z,27.98
2022-08-18T10:57:41.193Z,25.20
2022-08-18T11:00:18.688Z,23.88
2022-08-18T11:05:50.331Z,27.52
2022-08-18T11:08:20.102Z,27.60
2022-08-18T11:11:32.824Z,26.02
2022-08-18T11:13:50.051Z,26.75
2022-08-18T11:16:34.936Z,22.35
2022-08-18T11:19:10.421Z,22.25
2022-08-18T11:21:41.624Z,22.08
2022-08-18T11:24:31.518Z,26.40
2022-08-18T11:26:59.795Z,18.77
2022-08-18T11:29:36.549Z,23.17
2022-08-18T11:32:06.796Z,22.17
2022-08-18T11:34:52.922Z,19.67
2022-08-18T11:37:22.448Z,21.90
2022-08-18T11:39:50.084Z,22.20
2022-08-18T11:42:25.140Z,19.88
2022-08-18T11:44:53.952Z,15.68
2022-08-18T11:47:27.711Z,21.00
2022-08-18T11:50:00.260Z,18.67
2022-08-18T11:55:24.195Z,15.52
2022-08-18T12:00:46.950Z,17.65
2022-08-18T12:03:24.997Z,11.27
2022-08-18T12:05:56.359Z,14.95
2022-08-18T12:14:31.466Z,13.32
2022-08-18T12:17:01.627Z,18.48
2022-08-18T12:19:30.698Z,16.58
2022-08-18T12:21:58.615Z,13.32
2022-08-18T12:24:34.545Z,11.75
2022-08-18T12:27:12.383Z,14.35
2022-08-18T12:29:48.339Z,12.70
2022-08-18T12:32:17.607Z,14.63
2022-08-18T12:34:54.472Z,15.80
2022-08-18T12:40:09.608Z,15.70
2022-08-18T12:42:36.211Z,11.57
2022-08-18T12:45:02.665Z,12.30
2022-08-18T12:47:31.278Z,11.27
2022-08-18T12:49:58.575Z,10.57
2022-08-18T12:52:27.741Z,11.73
2022-08-18T12:57:51.933Z,10.00
2022-08-18T13:00:21.187Z,12.48
2022-08-18T13:02:54.776Z,11.82
2022-08-18T13:05:27.693Z,13.80
2022-08-18T13:08:04.372Z,10.80
2022-08-18T13:10:42.994Z,10.52
2022-08-18T13:13:12.692Z,9.95
2022-08-18T13:15:39.101Z,9.13
2022-08-18T13:18:14.231Z,9.10
2022-08-18T13:20:42.044Z,10.38
2022-08-18T13:23:12.030Z,5.45
2022-08-18T13:25:39.497Z,11.38
2022-08-18T13:28:06.325Z,9.57
2022-08-18T13:30:33.087Z,10.43
2022-08-18T13:33:06.028Z,15.27
2022-08-18T13:35:52.064Z,9.48
2022-08-18T13:38:27.239Z,7.22
2022-08-18T13:40:55.298Z,7.85
2022-08-18T13:43:26.079Z,7.50
2022-08-18T13:45:56.077Z,7.22
2022-08-18T13:48:23.968Z,5.50
2022-08-18T13:50:52.805Z,7.68
2022-08-18T13:53:20.346Z,6.15
2022-08-18T13:55:46.904Z,6.95
2022-08-18T13:58:20.202Z,5.97
2022-08-18T14:00:48.669Z,8.35
2022-08-18T14:03:30.692Z,6.38
2022-08-18T14:06:03.180Z,11.98
2022-08-18T14:08:33.991Z,12.60
2022-08-18T14:11:02.740Z,9.65
2022-08-18T14:13:29.708Z,11.32
2022-08-18T14:16:04.930Z,10.57
2022-08-18T14:18:31.494Z,8.32
2022-08-18T14:21:16.913Z,8.18
2022-08-18T14:24:10.673Z,9.30
2022-08-18T14:26:50.392Z,7.70
2022-08-18T14:29:46.605Z,10.50
2022-08-18T14:32:05.175Z,8.93
2022-08-18T14:34:31.566Z,12.05
2022-08-18T14:36:58.429Z,11.32
2022-08-18T14:39:25.439Z,9.45
2022-08-18T14:41:55.954Z,12.75
2022-08-18T14:44:23.894Z,11.95
2022-08-18T14:46:54.026Z,10.95
2022-08-18T14:49:28.205Z,11.57
2022-08-18T14:51:56.694Z,11.80
2022-08-18T14:54:23.763Z,8.75
2022-08-18T14:56:55.334Z,9.18
2022-08-18T14:59:23.282Z,11.52
2022-08-18T15:01:50.234Z,15.38
2022-08-18T15:04:19.329Z,12.77
2022-08-18T15:06:56.097Z,14.02
2022-08-18T15:09:23.485Z,11.73
2022-08-18T15:11:51.228Z,9.75
2022-08-18T15:14:21.383Z,10.05
2022-08-18T15:16:59.038Z,12.90
2022-08-18T15:19:58.204Z,10.95
2022-08-18T15:22:31.010Z,12.63
2022-08-18T15:25:17.376Z,12.35
2022-08-18T15:27:45.079Z,9.57
2022-08-18T15:30:19.097Z,10.15
2022-08-18T15:32:47.191Z,10.35
2022-08-18T15:35:17.052Z,10.20
2022-08-18T15:37:44.798Z,9.52
2022-08-18T15:40:21.918Z,8.48
2022-08-18T15:43:01.789Z,9.10
2022-08-18T15:45:35.629Z,8.20
2022-08-18T15:48:09.488Z,9.85
2022-08-18T15:50:39.090Z,8.18
2022-08-18T15:53:07.961Z,7.00
2022-08-18T15:55:37.748Z,8.43
2022-08-18T15:58:04.808Z,10.85
2022-08-18T16:00:38.593Z,8.55
2022-08-18T16:03:08.869Z,7.00
2022-08-18T16:05:38.101Z,6.10
2022-08-18T16:08:07.453Z,6.60
2022-08-18T16:10:37.768Z,5.47
2022-08-18T16:13:04.972Z,9.23
2022-08-18T16:15:36.954Z,9.55
2022-08-18T16:18:03.619Z,9.43
2022-08-18T16:20:30.361Z,7.95
2022-08-18T16:22:58.090Z,6.65
2022-08-18T16:25:24.818Z,9.60
2022-08-18T16:27:51.422Z,8.63
2022-08-18T16:30:19.667Z,11.90
2022-08-18T16:32:47.399Z,13.70
2022-08-18T16:35:14.272Z,8.80
2022-08-18T16:37:40.723Z,10.75
2022-08-18T16:40:08.618Z,7.65
2022-08-18T16:42:35.206Z,11.40
2022-08-18T16:45:01.906Z,11.95
2022-08-18T16:47:28.559Z,10.20
2022-08-18T16:49:58.491Z,11.85
2022-08-18T16:52:25.247Z,10.77
2022-08-18T16:54:57.309Z,13.07
2022-08-18T16:57:54.029Z,10.98
2022-08-18T17:00:40.575Z,10.70
2022-08-18T17:03:26.126Z,12.02
2022-08-18T17:06:02.942Z,12.00
2022-08-18T17:08:29.705Z,7.85
2022-08-18T17:10:56.115Z,11.30
2022-08-18T17:13:23.157Z,10.45
2022-08-18T17:15:50.070Z,9.32
2022-08-18T17:18:17.019Z,10.82
2022-08-18T17:20:43.423Z,8.77
2022-08-18T17:23:09.962Z,11.93
2022-08-18T17:25:36.678Z,11.88
2022-08-18T17:28:04.807Z,10.88
2022-08-18T17:30:42.070Z,14.27
2022-08-18T17:33:10.684Z,11.18
2022-08-18T17:35:38.866Z,13.98
2022-08-18T17:38:21.003Z,12.48
2022-08-18T17:40:50.844Z,12.60
2022-08-18T17:43:18.644Z,11.20
2022-08-18T17:45:46.692Z,15.35
2022-08-18T17:48:17.939Z,12.85
2022-08-18T17:51:08.402Z,16.30
2022-08-18T17:53:36.336Z,15.38
2022-08-18T17:56:02.791Z,13.02
2022-08-18T17:58:40.361Z,13.00
2022-08-18T18:01:07.761Z,12.35
2022-08-18T18:03:34.467Z,12.48
2022-08-18T18:06:14.039Z,13.20
2022-08-18T18:08:50.731Z,11.50
2022-08-18T18:11:17.107Z,15.05
2022-08-18T18:13:45.158Z,12.25
2022-08-18T18:16:23.756Z,12.00
2022-08-18T18:18:58.367Z,13.95
2022-08-18T18:21:53.556Z,11.95
2022-08-18T18:24:15.142Z,13.98
2022-08-18T18:26:48.611Z,12.85
2022-08-18T18:29:21.044Z,12.93
2022-08-18T18:31:58.394Z,11.70
2022-08-18T18:34:27.994Z,12.75
2022-08-18T18:36:56.134Z,12.13
2022-08-18T18:39:33.779Z,10.02
2022-08-18T18:42:14.975Z,10.23
2022-08-18T18:44:49.123Z,9.00
2022-08-18T18:47:24.680Z,11.02
2022-08-18T18:49:58.487Z,11.43
2022-08-18T18:52:43.091Z,10.03
2022-08-18T18:55:17.885Z,13.40
2022-08-18T18:57:44.282Z,17.30
2022-08-18T19:00:18.316Z,8.50
2022-08-18T19:02:53.000Z,13.57
2022-08-18T19:05:19.679Z,9.73
2022-08-18T19:07:46.285Z,10.57
2022-08-18T19:10:15.727Z,11.00
2022-08-18T19:12:46.611Z,11.57
2022-08-18T19:15:17.125Z,11.47
2022-08-18T19:17:58.618Z,11.20
2022-08-18T19:20:27.387Z,10.40
2022-08-18T19:22:57.346Z,10.70
2022-08-18T19:25:26.398Z,10.93
2022-08-18T19:28:22.425Z,12.07
2022-08-18T19:30:50.697Z,12.43
2022-08-18T19:33:43.617Z,9.47
2022-08-18T19:36:10.097Z,11.87
2022-08-18T19:39:12.325Z,13.67
2022-08-18T19:41:49.505Z,10.37
2022-08-18T19:44:29.280Z,8.43
2022-08-18T19:47:03.648Z,10.50
2022-08-18T19:49:36.352Z,8.67
2022-08-18T19:52:46.870Z,11.20
2022-08-18T19:55:22.651Z,10.57
2022-08-18T19:58:01.318Z,15.23
2022-08-18T20:00:36.594Z,10.03
2022-08-18T20:03:18.814Z,9.90
2022-08-18T20:05:48.030Z,13.60
2022-08-18T20:08:25.740Z,11.27
2022-08-18T20:11:11.340Z,8.03
2022-08-18T20:13:43.335Z,7.80
2022-08-18T20:16:12.848Z,15.63
2022-08-18T20:18:39.614Z,9.00
2022-08-18T20:21:19.647Z,12.37
2022-08-18T20:24:05.133Z,11.77
2022-08-18T20:26:40.788Z,10.37
2022-08-18T20:29:12.598Z,11.27
2022-08-18T20:31:49.147Z,11.37
2022-08-18T20:34:21.069Z,11.03
2022-08-18T20:36:48.674Z,11.97
2022-08-18T20:39:33.487Z,11.83
2022-08-18T20:42:01.225Z,16.10
2022-08-18T20:44:39.949Z,10.30
2022-08-18T20:47:06.304Z,11.80
2022-08-18T20:49:51.658Z,10.83
2022-08-18T20:52:29.592Z,9.13
2022-08-18T20:55:03.137Z,11.50
2022-08-18T20:57:38.603Z,12.53
2022-08-18T21:00:14.147Z,14.53
2022-08-18T21:02:46.081Z,13.87
2022-08-18T21:05:16.817Z,9.23
2022-08-18T21:08:29.645Z,10.97
2022-08-18T21:10:56.059Z,9.30
2022-08-18T21:13:38.459Z,12.03
2022-08-18T21:16:04.884Z,13.07
2022-08-18T21:18:34.615Z,11.67
2022-08-18T21:21:02.692Z,10.20
2022-08-18T21:23:30.850Z,11.57
2022-08-18T21:26:06.309Z,14.53
2022-08-18T21:28:34.902Z,10.13
2022-08-18T21:31:41.705Z,10.70
2022-08-18T21:33:50.535Z,15.30
2022-08-18T21:36:17.976Z,11.50
2022-08-18T21:39:05.448Z,12.13
2022-08-18T21:41:33.621Z,11.67
2022-08-18T21:44:05.937Z,12.67
2022-08-18T21:46:32.409Z,12.70
2022-08-18T21:49:00.521Z,14.57
2022-08-18T21:51:31.270Z,16.20
2022-08-18T21:53:58.769Z,10.57
2022-08-18T21:56:28.238Z,11.37
2022-08-18T21:59:24.053Z,12.40
2022-08-18T22:01:55.397Z,10.97
2022-08-18T22:04:27.548Z,13.00
2022-08-18T22:06:59.190Z,13.67
2022-08-18T22:09:46.085Z,12.40
2022-08-18T22:12:50.175Z,9.77
2022-08-18T22:15:21.221Z,11.27
2022-08-18T22:18:10.984Z,15.30
2022-08-18T22:20:40.259Z,13.07
2022-08-18T22:23:35.978Z,10.43
2022-08-18T22:26:09.055Z,15.13
2022-08-18T22:28:41.618Z,18.07
2022-08-18T22:31:08.042Z,15.50
2022-08-18T22:33:37.241Z,12.50
2022-08-18T22:36:04.515Z,12.73
2022-08-18T22:38:31.081Z,15.30
2022-08-18T22:40:59.153Z,14.30
2022-08-18T22:43:25.964Z,11.13
2022-08-18T22:45:52.626Z,16.00
2022-08-18T22:48:19.146Z,14.93
2022-08-18T22:50:46.297Z,15.73
2022-08-18T22:53:16.249Z,18.73
2022-08-18T22:55:42.662Z,11.23
2022-08-18T22:58:09.078Z,13.77
2022-08-18T23:00:36.772Z,17.97
2022-08-18T23:03:04.409Z,21.33
2022-08-18T23:05:30.799Z,24.87
2022-08-18T23:07:57.186Z,14.43
2022-08-18T23:10:23.631Z,12.83
2022-08-18T23:12:50.083Z,17.57
2022-08-18T23:15:17.353Z,17.00
2022-08-18T23:17:43.799Z,18.43
2022-08-18T23:20:12.543Z,17.13
2022-08-18T23:22:44.502Z,15.17
2022-08-18T23:25:10.906Z,20.23
2022-08-18T23:27:37.312Z,12.83
2022-08-18T23:30:04.465Z,18.97
2022-08-18T23:32:32.157Z,15.57
2022-08-18T23:34:58.798Z,13.57
2022-08-18T23:37:25.327Z,16.37
2022-08-18T23:39:51.763Z,17.00
2022-08-18T23:42:18.225Z,17.40
2022-08-18T23:44:44.587Z,17.53
2022-08-18T23:47:11.061Z,18.10
2022-08-18T23:49:38.263Z,12.83
2022-08-18T23:52:05.740Z,20.70
2022-08-18T23:54:33.790Z,14.17
2022-08-18T23:57:00.752Z,18.07
2022-08-18T23:59:28.066Z,13.53
